sensor_id;sensor_type;location;lat;lon;timestamp;temperature;humidity
12043;DHT22;6082;49.306;12.862;2023-06-22T00:00:55;20.10;99.90
12043;DHT22;6082;49.306;12.862;2023-06-22T00:03:22;20.10;99.90
12043;DHT22;6082;49.306;12.862;2023-06-22T00:05:48;20.00;99.90
12043;DHT22;6082;49.306;12.862;2023-06-22T00:08:15;20.00;99.90
12043;DHT22;6082;49.306;12.862;2023-06-22T00:10:41;20.00;99.90
12043;DHT22;6082;49.306;12.862;2023-06-22T00:13:08;20.10;99.90
12043;DHT22;6082;49.306;12.862;2023-06-22T00:15:34;20.00;99.90
12043;DHT22;6082;49.306;12.862;2023-06-22T00:18:00;20.00;99.90
12043;DHT22;6082;49.306;12.862;2023-06-22T00:20:28;20.00;99.90
12043;DHT22;6082;49.306;12.862;2023-06-22T00:22:54;20.00;99.90
12043;DHT22;6082;49.306;12.862;2023-06-22T00:25:20;20.00;99.90
12043;DHT22;6082;49.306;12.862;2023-06-22T00:27:46;20.00;99.90
12043;DHT22;6082;49.306;12.862;2023-06-22T00:30:12;20.00;99.90
12043;DHT22;6082;49.306;12.862;2023-06-22T00:32:38;20.00;99.90
12043;DHT22;6082;49.306;12.862;2023-06-22T00:35:04;20.00;99.90
12043;DHT22;6082;49.306;12.862;2023-06-22T00:37:30;20.00;99.90
12043;DHT22;6082;49.306;12.862;2023-06-22T00:39:56;20.00;99.90
12043;DHT22;6082;49.306;12.862;2023-06-22T00:42:22;20.00;99.90
12043;DHT22;6082;49.306;12.862;2023-06-22T00:44:48;19.90;99.90
12043;DHT22;6082;49.306;12.862;2023-06-22T00:47:16;19.90;99.90
12043;DHT22;6082;49.306;12.862;2023-06-22T00:49:43;19.90;99.90
12043;DHT22;6082;49.306;12.862;2023-06-22T00:52:09;19.90;99.90
12043;DHT22;6082;49.306;12.862;2023-06-22T00:54:40;19.90;99.90
12043;DHT22;6082;49.306;12.862;2023-06-22T00:57:12;19.90;99.90
12043;DHT22;6082;49.306;12.862;2023-06-22T00:59:43;19.80;99.90
12043;DHT22;6082;49.306;12.862;2023-06-22T01:02:10;19.80;99.90
12043;DHT22;6082;49.306;12.862;2023-06-22T01:04:37;19.80;99.90
12043;DHT22;6082;49.306;12.862;2023-06-22T01:10:31;19.70;99.90
12043;DHT22;6082;49.306;12.862;2023-06-22T01:12:34;19.50;99.90
12043;DHT22;6082;49.306;12.862;2023-06-22T01:15:21;19.20;99.90
12043;DHT22;6082;49.306;12.862;2023-06-22T01:17:49;19.00;99.90
12043;DHT22;6082;49.306;12.862;2023-06-22T01:20:17;18.80;99.90
12043;DHT22;6082;49.306;12.862;2023-06-22T01:30:58;18.90;99.90
12043;DHT22;6082;49.306;12.862;2023-06-22T01:33:34;18.90;99.90
12043;DHT22;6082;49.306;12.862;2023-06-22T01:36:02;18.90;99.90
12043;DHT22;6082;49.306;12.862;2023-06-22T01:38:29;18.80;99.90
12043;DHT22;6082;49.306;12.862;2023-06-22T01:40:57;18.80;99.90
12043;DHT22;6082;49.306;12.862;2023-06-22T01:43:25;18.80;99.90
12043;DHT22;6082;49.306;12.862;2023-06-22T01:45:52;18.70;99.90
12043;DHT22;6082;49.306;12.862;2023-06-22T01:48:18;18.60;99.90
12043;DHT22;6082;49.306;12.862;2023-06-22T01:50:45;18.70;99.90
12043;DHT22;6082;49.306;12.862;2023-06-22T01:53:11;18.60;99.90
12043;DHT22;6082;49.306;12.862;2023-06-22T01:55:36;18.70;99.90
12043;DHT22;6082;49.306;12.862;2023-06-22T01:58:02;18.60;99.90
12043;DHT22;6082;49.306;12.862;2023-06-22T02:00:34;18.70;99.90
12043;DHT22;6082;49.306;12.862;2023-06-22T02:03:10;18.70;99.90
12043;DHT22;6082;49.306;12.862;2023-06-22T02:05:39;18.70;99.90
12043;DHT22;6082;49.306;12.862;2023-06-22T02:08:13;18.80;99.90
12043;DHT22;6082;49.306;12.862;2023-06-22T02:10:43;18.80;99.90
12043;DHT22;6082;49.306;12.862;2023-06-22T02:13:10;18.70;99.90
12043;DHT22;6082;49.306;12.862;2023-06-22T02:15:37;18.60;99.90
12043;DHT22;6082;49.306;12.862;2023-06-22T02:18:03;18.40;99.90
12043;DHT22;6082;49.306;12.862;2023-06-22T02:20:29;18.40;99.90
12043;DHT22;6082;49.306;12.862;2023-06-22T02:22:54;18.30;99.90
12043;DHT22;6082;49.306;12.862;2023-06-22T02:25:20;18.40;99.90
12043;DHT22;6082;49.306;12.862;2023-06-22T02:27:46;18.40;99.90
12043;DHT22;6082;49.306;12.862;2023-06-22T02:30:12;18.40;99.90
12043;DHT22;6082;49.306;12.862;2023-06-22T02:32:40;18.40;99.90
12043;DHT22;6082;49.306;12.862;2023-06-22T02:35:10;18.50;99.90
12043;DHT22;6082;49.306;12.862;2023-06-22T02:37:37;18.50;99.90
12043;DHT22;6082;49.306;12.862;2023-06-22T02:40:10;18.50;99.90
12043;DHT22;6082;49.306;12.862;2023-06-22T02:42:39;18.50;99.90
12043;DHT22;6082;49.306;12.862;2023-06-22T02:45:05;18.60;99.90
12043;DHT22;6082;49.306;12.862;2023-06-22T02:47:31;18.60;99.90
12043;DHT22;6082;49.306;12.862;2023-06-22T02:49:57;18.60;99.90
12043;DHT22;6082;49.306;12.862;2023-06-22T02:52:23;18.60;99.90
12043;DHT22;6082;49.306;12.862;2023-06-22T02:54:48;18.60;99.90
12043;DHT22;6082;49.306;12.862;2023-06-22T02:57:14;18.70;99.90
12043;DHT22;6082;49.306;12.862;2023-06-22T02:59:40;18.70;99.90
12043;DHT22;6082;49.306;12.862;2023-06-22T03:02:08;18.70;99.90
12043;DHT22;6082;49.306;12.862;2023-06-22T03:04:38;18.70;99.90
12043;DHT22;6082;49.306;12.862;2023-06-22T03:07:04;18.70;99.90
12043;DHT22;6082;49.306;12.862;2023-06-22T03:09:30;18.80;99.90
12043;DHT22;6082;49.306;12.862;2023-06-22T03:11:56;18.80;99.90
12043;DHT22;6082;49.306;12.862;2023-06-22T03:14:21;18.80;99.90
12043;DHT22;6082;49.306;12.862;2023-06-22T03:16:47;18.80;99.90
12043;DHT22;6082;49.306;12.862;2023-06-22T03:19:13;18.90;99.90
12043;DHT22;6082;49.306;12.862;2023-06-22T03:21:39;18.80;99.90
12043;DHT22;6082;49.306;12.862;2023-06-22T03:24:06;18.80;99.90
12043;DHT22;6082;49.306;12.862;2023-06-22T03:26:33;18.80;99.90
12043;DHT22;6082;49.306;12.862;2023-06-22T03:29:00;18.70;99.90
12043;DHT22;6082;49.306;12.862;2023-06-22T03:31:26;18.70;99.90
12043;DHT22;6082;49.306;12.862;2023-06-22T03:33:52;18.70;99.90
12043;DHT22;6082;49.306;12.862;2023-06-22T03:36:18;18.60;99.90
12043;DHT22;6082;49.306;12.862;2023-06-22T03:38:48;18.60;99.90
12043;DHT22;6082;49.306;12.862;2023-06-22T03:41:15;18.60;99.90
12043;DHT22;6082;49.306;12.862;2023-06-22T03:43:41;18.60;99.90
12043;DHT22;6082;49.306;12.862;2023-06-22T03:46:07;18.60;99.90
12043;DHT22;6082;49.306;12.862;2023-06-22T03:48:36;18.60;99.90
12043;DHT22;6082;49.306;12.862;2023-06-22T03:51:02;18.60;99.90
12043;DHT22;6082;49.306;12.862;2023-06-22T03:53:31;18.60;99.90
12043;DHT22;6082;49.306;12.862;2023-06-22T03:55:56;18.60;99.90
12043;DHT22;6082;49.306;12.862;2023-06-22T03:58:22;18.60;99.90
12043;DHT22;6082;49.306;12.862;2023-06-22T04:00:52;18.60;99.90
12043;DHT22;6082;49.306;12.862;2023-06-22T04:03:19;18.60;99.90
12043;DHT22;6082;49.306;12.862;2023-06-22T04:05:45;18.60;99.90
12043;DHT22;6082;49.306;12.862;2023-06-22T04:08:12;18.60;99.90
12043;DHT22;6082;49.306;12.862;2023-06-22T04:10:38;18.60;99.90
12043;DHT22;6082;49.306;12.862;2023-06-22T04:13:04;18.60;99.90
12043;DHT22;6082;49.306;12.862;2023-06-22T04:15:30;18.60;99.90
12043;DHT22;6082;49.306;12.862;2023-06-22T04:17:56;18.60;99.90
12043;DHT22;6082;49.306;12.862;2023-06-22T04:20:23;18.60;99.90
12043;DHT22;6082;49.306;12.862;2023-06-22T04:22:54;18.60;99.90
12043;DHT22;6082;49.306;12.862;2023-06-22T04:25:20;18.60;99.90
12043;DHT22;6082;49.306;12.862;2023-06-22T04:27:47;18.60;99.90
12043;DHT22;6082;49.306;12.862;2023-06-22T04:30:17;18.60;99.90
12043;DHT22;6082;49.306;12.862;2023-06-22T04:32:43;18.60;99.90
12043;DHT22;6082;49.306;12.862;2023-06-22T04:35:10;18.60;99.90
12043;DHT22;6082;49.306;12.862;2023-06-22T04:37:35;18.60;99.90
12043;DHT22;6082;49.306;12.862;2023-06-22T04:40:01;18.70;99.90
12043;DHT22;6082;49.306;12.862;2023-06-22T04:42:29;18.70;99.90
12043;DHT22;6082;49.306;12.862;2023-06-22T04:44:55;18.70;99.90
12043;DHT22;6082;49.306;12.862;2023-06-22T04:47:21;18.70;99.90
12043;DHT22;6082;49.306;12.862;2023-06-22T04:49:47;18.80;99.90
12043;DHT22;6082;49.306;12.862;2023-06-22T04:52:13;18.90;99.90
12043;DHT22;6082;49.306;12.862;2023-06-22T04:54:40;19.00;99.90
12043;DHT22;6082;49.306;12.862;2023-06-22T04:57:13;19.00;99.90
12043;DHT22;6082;49.306;12.862;2023-06-22T04:59:41;19.10;99.90
12043;DHT22;6082;49.306;12.862;2023-06-22T05:02:08;19.10;99.90
12043;DHT22;6082;49.306;12.862;2023-06-22T05:04:34;19.20;99.90
12043;DHT22;6082;49.306;12.862;2023-06-22T05:07:04;19.30;99.90
12043;DHT22;6082;49.306;12.862;2023-06-22T05:09:30;19.30;99.90
12043;DHT22;6082;49.306;12.862;2023-06-22T05:11:56;19.40;99.90
12043;DHT22;6082;49.306;12.862;2023-06-22T05:14:22;19.50;99.90
12043;DHT22;6082;49.306;12.862;2023-06-22T05:16:48;19.50;99.90
12043;DHT22;6082;49.306;12.862;2023-06-22T05:19:14;19.50;99.90
12043;DHT22;6082;49.306;12.862;2023-06-22T05:21:40;19.60;99.90
12043;DHT22;6082;49.306;12.862;2023-06-22T05:24:06;19.50;99.90
12043;DHT22;6082;49.306;12.862;2023-06-22T05:26:33;19.60;99.90
12043;DHT22;6082;49.306;12.862;2023-06-22T05:29:01;19.60;99.90
12043;DHT22;6082;49.306;12.862;2023-06-22T05:31:28;19.80;99.90
12043;DHT22;6082;49.306;12.862;2023-06-22T05:33:54;19.90;99.90
12043;DHT22;6082;49.306;12.862;2023-06-22T05:36:21;20.00;99.90
12043;DHT22;6082;49.306;12.862;2023-06-22T05:38:53;20.00;99.90
12043;DHT22;6082;49.306;12.862;2023-06-22T05:41:19;20.10;99.90
12043;DHT22;6082;49.306;12.862;2023-06-22T05:43:45;20.00;99.90
12043;DHT22;6082;49.306;12.862;2023-06-22T05:46:10;20.00;99.90
12043;DHT22;6082;49.306;12.862;2023-06-22T05:48:36;20.00;99.90
12043;DHT22;6082;49.306;12.862;2023-06-22T05:51:02;20.00;99.90
12043;DHT22;6082;49.306;12.862;2023-06-22T05:53:28;20.00;99.90
12043;DHT22;6082;49.306;12.862;2023-06-22T05:55:53;20.10;99.90
12043;DHT22;6082;49.306;12.862;2023-06-22T05:58:19;20.20;99.90
12043;DHT22;6082;49.306;12.862;2023-06-22T06:00:45;20.30;99.90
12043;DHT22;6082;49.306;12.862;2023-06-22T06:03:12;20.30;99.90
12043;DHT22;6082;49.306;12.862;2023-06-22T06:05:37;20.40;99.90
12043;DHT22;6082;49.306;12.862;2023-06-22T06:08:05;20.50;99.90
12043;DHT22;6082;49.306;12.862;2023-06-22T06:10:35;20.50;99.90
12043;DHT22;6082;49.306;12.862;2023-06-22T06:13:01;20.70;99.90
12043;DHT22;6082;49.306;12.862;2023-06-22T06:15:28;20.70;99.90
12043;DHT22;6082;49.306;12.862;2023-06-22T06:17:53;20.80;99.90
12043;DHT22;6082;49.306;12.862;2023-06-22T06:20:24;20.80;99.90
12043;DHT22;6082;49.306;12.862;2023-06-22T06:22:50;20.80;99.90
12043;DHT22;6082;49.306;12.862;2023-06-22T06:25:17;20.90;99.90
12043;DHT22;6082;49.306;12.862;2023-06-22T06:27:45;20.90;99.90
12043;DHT22;6082;49.306;12.862;2023-06-22T06:30:12;20.90;99.90
12043;DHT22;6082;49.306;12.862;2023-06-22T06:32:39;20.90;99.90
12043;DHT22;6082;49.306;12.862;2023-06-22T06:35:09;20.90;99.90
12043;DHT22;6082;49.306;12.862;2023-06-22T06:37:40;20.90;99.90
12043;DHT22;6082;49.306;12.862;2023-06-22T06:40:07;21.00;99.90
12043;DHT22;6082;49.306;12.862;2023-06-22T06:42:42;21.10;99.90
12043;DHT22;6082;49.306;12.862;2023-06-22T06:45:20;21.20;99.90
12043;DHT22;6082;49.306;12.862;2023-06-22T06:47:48;21.30;99.90
12043;DHT22;6082;49.306;12.862;2023-06-22T06:50:14;21.40;99.90
12043;DHT22;6082;49.306;12.862;2023-06-22T06:52:40;21.50;99.90
12043;DHT22;6082;49.306;12.862;2023-06-22T06:55:07;21.50;99.90
12043;DHT22;6082;49.306;12.862;2023-06-22T06:57:34;21.60;99.90
12043;DHT22;6082;49.306;12.862;2023-06-22T07:00:00;21.70;99.90
12043;DHT22;6082;49.306;12.862;2023-06-22T07:02:26;21.80;99.90
12043;DHT22;6082;49.306;12.862;2023-06-22T07:04:53;21.90;99.90
12043;DHT22;6082;49.306;12.862;2023-06-22T07:07:21;22.00;99.90
12043;DHT22;6082;49.306;12.862;2023-06-22T07:09:47;22.10;99.90
12043;DHT22;6082;49.306;12.862;2023-06-22T07:12:12;22.10;99.90
12043;DHT22;6082;49.306;12.862;2023-06-22T07:14:38;22.20;99.90
12043;DHT22;6082;49.306;12.862;2023-06-22T07:17:04;22.20;99.90
12043;DHT22;6082;49.306;12.862;2023-06-22T07:19:30;22.30;99.90
12043;DHT22;6082;49.306;12.862;2023-06-22T07:21:56;22.30;99.90
12043;DHT22;6082;49.306;12.862;2023-06-22T07:24:23;22.40;99.90
12043;DHT22;6082;49.306;12.862;2023-06-22T07:26:50;22.40;99.90
12043;DHT22;6082;49.306;12.862;2023-06-22T07:29:20;22.50;99.90
12043;DHT22;6082;49.306;12.862;2023-06-22T07:31:47;22.60;99.90
12043;DHT22;6082;49.306;12.862;2023-06-22T07:34:13;22.80;99.90
12043;DHT22;6082;49.306;12.862;2023-06-22T07:36:39;22.80;99.90
12043;DHT22;6082;49.306;12.862;2023-06-22T07:39:05;22.90;99.90
12043;DHT22;6082;49.306;12.862;2023-06-22T07:41:31;23.00;99.90
12043;DHT22;6082;49.306;12.862;2023-06-22T07:43:57;23.10;99.90
12043;DHT22;6082;49.306;12.862;2023-06-22T07:46:23;23.20;99.90
12043;DHT22;6082;49.306;12.862;2023-06-22T07:48:49;23.30;99.90
12043;DHT22;6082;49.306;12.862;2023-06-22T07:51:15;23.40;99.90
12043;DHT22;6082;49.306;12.862;2023-06-22T07:53:42;23.50;99.90
12043;DHT22;6082;49.306;12.862;2023-06-22T07:56:10;23.60;99.90
12043;DHT22;6082;49.306;12.862;2023-06-22T07:58:36;23.70;99.90
12043;DHT22;6082;49.306;12.862;2023-06-22T08:01:02;23.80;99.90
12043;DHT22;6082;49.306;12.862;2023-06-22T08:03:29;23.90;99.90
12043;DHT22;6082;49.306;12.862;2023-06-22T08:05:55;23.90;99.90
12043;DHT22;6082;49.306;12.862;2023-06-22T08:08:20;24.00;99.90
12043;DHT22;6082;49.306;12.862;2023-06-22T08:10:46;24.00;99.90
12043;DHT22;6082;49.306;12.862;2023-06-22T08:13:15;24.10;99.90
12043;DHT22;6082;49.306;12.862;2023-06-22T08:15:41;24.20;99.90
12043;DHT22;6082;49.306;12.862;2023-06-22T08:18:06;24.30;99.90
12043;DHT22;6082;49.306;12.862;2023-06-22T08:20:32;24.40;99.90
12043;DHT22;6082;49.306;12.862;2023-06-22T08:22:59;24.50;99.90
12043;DHT22;6082;49.306;12.862;2023-06-22T08:25:30;24.60;99.90
12043;DHT22;6082;49.306;12.862;2023-06-22T08:27:56;24.70;99.90
12043;DHT22;6082;49.306;12.862;2023-06-22T08:30:22;24.80;99.90
12043;DHT22;6082;49.306;12.862;2023-06-22T08:32:48;25.00;99.90
12043;DHT22;6082;49.306;12.862;2023-06-22T08:35:14;25.10;99.90
12043;DHT22;6082;49.306;12.862;2023-06-22T08:37:40;25.20;99.90
12043;DHT22;6082;49.306;12.862;2023-06-22T08:40:08;25.30;99.90
12043;DHT22;6082;49.306;12.862;2023-06-22T08:42:37;25.40;99.90
12043;DHT22;6082;49.306;12.862;2023-06-22T08:45:04;25.50;99.90
12043;DHT22;6082;49.306;12.862;2023-06-22T08:47:30;25.60;99.90
12043;DHT22;6082;49.306;12.862;2023-06-22T08:49:56;25.60;99.90
12043;DHT22;6082;49.306;12.862;2023-06-22T08:52:28;25.70;99.90
12043;DHT22;6082;49.306;12.862;2023-06-22T08:54:53;25.80;99.90
12043;DHT22;6082;49.306;12.862;2023-06-22T08:57:21;25.80;99.90
12043;DHT22;6082;49.306;12.862;2023-06-22T08:59:47;25.90;99.90
12043;DHT22;6082;49.306;12.862;2023-06-22T09:02:13;26.10;99.90
12043;DHT22;6082;49.306;12.862;2023-06-22T09:04:39;26.20;99.90
12043;DHT22;6082;49.306;12.862;2023-06-22T09:07:05;26.30;99.90
12043;DHT22;6082;49.306;12.862;2023-06-22T09:09:30;26.40;99.90
12043;DHT22;6082;49.306;12.862;2023-06-22T09:11:56;26.50;99.90
12043;DHT22;6082;49.306;12.862;2023-06-22T09:14:22;26.60;99.90
12043;DHT22;6082;49.306;12.862;2023-06-22T09:16:48;26.60;99.90
12043;DHT22;6082;49.306;12.862;2023-06-22T09:19:13;26.70;99.90
12043;DHT22;6082;49.306;12.862;2023-06-22T09:21:39;26.80;99.90
12043;DHT22;6082;49.306;12.862;2023-06-22T09:24:05;26.90;99.90
12043;DHT22;6082;49.306;12.862;2023-06-22T09:26:31;27.00;99.90
12043;DHT22;6082;49.306;12.862;2023-06-22T09:28:57;27.00;99.90
12043;DHT22;6082;49.306;12.862;2023-06-22T09:31:23;27.00;99.90
12043;DHT22;6082;49.306;12.862;2023-06-22T09:33:54;27.00;99.90
12043;DHT22;6082;49.306;12.862;2023-06-22T09:36:23;27.10;99.90
12043;DHT22;6082;49.306;12.862;2023-06-22T09:38:50;27.30;99.90
12043;DHT22;6082;49.306;12.862;2023-06-22T09:41:24;27.50;99.90
12043;DHT22;6082;49.306;12.862;2023-06-22T09:43:50;27.50;99.90
12043;DHT22;6082;49.306;12.862;2023-06-22T09:46:17;27.70;99.90
12043;DHT22;6082;49.306;12.862;2023-06-22T09:48:43;27.70;99.90
12043;DHT22;6082;49.306;12.862;2023-06-22T09:51:08;27.80;99.90
12043;DHT22;6082;49.306;12.862;2023-06-22T09:53:34;27.80;99.90
12043;DHT22;6082;49.306;12.862;2023-06-22T09:56:00;27.80;99.90
12043;DHT22;6082;49.306;12.862;2023-06-22T09:58:27;27.90;99.90
12043;DHT22;6082;49.306;12.862;2023-06-22T10:00:53;28.00;99.90
12043;DHT22;6082;49.306;12.862;2023-06-22T10:03:20;28.00;99.90
12043;DHT22;6082;49.306;12.862;2023-06-22T10:05:46;28.10;99.90
12043;DHT22;6082;49.306;12.862;2023-06-22T10:08:12;28.20;99.90
12043;DHT22;6082;49.306;12.862;2023-06-22T10:10:37;28.20;99.90
12043;DHT22;6082;49.306;12.862;2023-06-22T10:13:08;28.30;99.90
12043;DHT22;6082;49.306;12.862;2023-06-22T10:15:38;28.50;99.90
12043;DHT22;6082;49.306;12.862;2023-06-22T10:18:04;28.50;99.90
12043;DHT22;6082;49.306;12.862;2023-06-22T10:20:29;28.60;99.90
12043;DHT22;6082;49.306;12.862;2023-06-22T10:22:55;28.60;99.90
12043;DHT22;6082;49.306;12.862;2023-06-22T10:25:21;28.60;99.90
12043;DHT22;6082;49.306;12.862;2023-06-22T10:27:47;28.60;99.90
12043;DHT22;6082;49.306;12.862;2023-06-22T10:30:16;28.70;99.90
12043;DHT22;6082;49.306;12.862;2023-06-22T10:32:42;28.70;99.90
12043;DHT22;6082;49.306;12.862;2023-06-22T10:35:09;28.80;99.90
12043;DHT22;6082;49.306;12.862;2023-06-22T10:37:39;28.80;99.90
12043;DHT22;6082;49.306;12.862;2023-06-22T10:40:05;28.80;99.90
12043;DHT22;6082;49.306;12.862;2023-06-22T10:42:31;28.90;99.90
12043;DHT22;6082;49.306;12.862;2023-06-22T10:44:57;29.00;99.90
12043;DHT22;6082;49.306;12.862;2023-06-22T10:47:22;29.00;99.90
12043;DHT22;6082;49.306;12.862;2023-06-22T10:49:48;29.10;99.90
12043;DHT22;6082;49.306;12.862;2023-06-22T10:52:14;29.20;99.90
12043;DHT22;6082;49.306;12.862;2023-06-22T10:54:40;29.40;99.90
12043;DHT22;6082;49.306;12.862;2023-06-22T10:57:06;29.40;99.90
12043;DHT22;6082;49.306;12.862;2023-06-22T10:59:32;29.40;99.90
12043;DHT22;6082;49.306;12.862;2023-06-22T11:01:58;29.50;99.90
12043;DHT22;6082;49.306;12.862;2023-06-22T11:04:25;29.50;99.90
12043;DHT22;6082;49.306;12.862;2023-06-22T11:06:51;29.60;99.90
12043;DHT22;6082;49.306;12.862;2023-06-22T11:09:17;29.60;99.90
12043;DHT22;6082;49.306;12.862;2023-06-22T11:11:49;29.70;99.90
12043;DHT22;6082;49.306;12.862;2023-06-22T11:14:16;29.70;99.90
12043;DHT22;6082;49.306;12.862;2023-06-22T11:16:42;29.80;99.90
12043;DHT22;6082;49.306;12.862;2023-06-22T11:19:08;29.90;99.90
12043;DHT22;6082;49.306;12.862;2023-06-22T11:21:33;29.90;99.90
12043;DHT22;6082;49.306;12.862;2023-06-22T11:23:59;29.90;99.90
12043;DHT22;6082;49.306;12.862;2023-06-22T11:26:25;30.00;99.90
12043;DHT22;6082;49.306;12.862;2023-06-22T11:28:54;30.10;99.90
12043;DHT22;6082;49.306;12.862;2023-06-22T11:31:20;30.10;99.90
12043;DHT22;6082;49.306;12.862;2023-06-22T11:33:46;30.10;99.90
12043;DHT22;6082;49.306;12.862;2023-06-22T11:36:14;30.20;99.90
12043;DHT22;6082;49.306;12.862;2023-06-22T11:38:40;30.30;99.90
12043;DHT22;6082;49.306;12.862;2023-06-22T11:41:06;30.40;99.90
12043;DHT22;6082;49.306;12.862;2023-06-22T11:43:32;30.50;99.90
12043;DHT22;6082;49.306;12.862;2023-06-22T11:45:58;30.50;99.90
12043;DHT22;6082;49.306;12.862;2023-06-22T11:48:24;30.60;99.90
12043;DHT22;6082;49.306;12.862;2023-06-22T11:50:50;30.60;99.90
12043;DHT22;6082;49.306;12.862;2023-06-22T11:53:17;30.70;99.90
12043;DHT22;6082;49.306;12.862;2023-06-22T11:55:43;30.60;99.90
12043;DHT22;6082;49.306;12.862;2023-06-22T11:58:09;30.70;99.90
12043;DHT22;6082;49.306;12.862;2023-06-22T12:00:35;30.70;99.90
12043;DHT22;6082;49.306;12.862;2023-06-22T12:03:01;30.80;99.90
12043;DHT22;6082;49.306;12.862;2023-06-22T12:05:27;30.80;99.90
12043;DHT22;6082;49.306;12.862;2023-06-22T12:07:53;30.90;99.90
12043;DHT22;6082;49.306;12.862;2023-06-22T12:10:19;30.90;99.90
12043;DHT22;6082;49.306;12.862;2023-06-22T12:12:45;30.90;99.90
12043;DHT22;6082;49.306;12.862;2023-06-22T12:15:10;30.90;99.90
12043;DHT22;6082;49.306;12.862;2023-06-22T12:17:36;31.00;99.90
12043;DHT22;6082;49.306;12.862;2023-06-22T12:20:02;31.00;99.90
12043;DHT22;6082;49.306;12.862;2023-06-22T12:22:32;31.10;99.90
12043;DHT22;6082;49.306;12.862;2023-06-22T12:24:57;31.20;99.90
12043;DHT22;6082;49.306;12.862;2023-06-22T12:27:24;31.20;99.90
12043;DHT22;6082;49.306;12.862;2023-06-22T12:29:50;31.30;99.90
12043;DHT22;6082;49.306;12.862;2023-06-22T12:32:16;31.40;99.90
12043;DHT22;6082;49.306;12.862;2023-06-22T12:34:42;31.30;99.90
12043;DHT22;6082;49.306;12.862;2023-06-22T12:37:08;31.30;99.90
12043;DHT22;6082;49.306;12.862;2023-06-22T12:39:34;31.30;99.90
12043;DHT22;6082;49.306;12.862;2023-06-22T12:41:59;31.30;99.90
12043;DHT22;6082;49.306;12.862;2023-06-22T12:44:25;31.30;99.90
12043;DHT22;6082;49.306;12.862;2023-06-22T12:46:51;31.30;99.90
12043;DHT22;6082;49.306;12.862;2023-06-22T12:49:17;31.30;99.90
12043;DHT22;6082;49.306;12.862;2023-06-22T12:51:43;31.30;99.90
12043;DHT22;6082;49.306;12.862;2023-06-22T12:54:10;31.50;99.90
12043;DHT22;6082;49.306;12.862;2023-06-22T12:56:37;31.50;99.90
12043;DHT22;6082;49.306;12.862;2023-06-22T12:59:03;31.50;99.90
12043;DHT22;6082;49.306;12.862;2023-06-22T13:01:30;31.60;99.90
12043;DHT22;6082;49.306;12.862;2023-06-22T13:03:56;31.60;99.90
12043;DHT22;6082;49.306;12.862;2023-06-22T13:06:22;31.70;99.90
12043;DHT22;6082;49.306;12.862;2023-06-22T13:08:48;31.80;99.90
12043;DHT22;6082;49.306;12.862;2023-06-22T13:11:13;31.80;99.90
12043;DHT22;6082;49.306;12.862;2023-06-22T13:13:39;31.90;99.90
12043;DHT22;6082;49.306;12.862;2023-06-22T13:16:05;31.80;99.90
12043;DHT22;6082;49.306;12.862;2023-06-22T13:18:31;31.90;99.90
12043;DHT22;6082;49.306;12.862;2023-06-22T13:20:57;31.90;99.90
12043;DHT22;6082;49.306;12.862;2023-06-22T13:23:23;32.00;99.90
12043;DHT22;6082;49.306;12.862;2023-06-22T13:25:49;32.00;99.90
12043;DHT22;6082;49.306;12.862;2023-06-22T13:28:15;32.00;99.90
12043;DHT22;6082;49.306;12.862;2023-06-22T13:30:42;32.00;99.90
12043;DHT22;6082;49.306;12.862;2023-06-22T13:33:08;31.90;99.90
12043;DHT22;6082;49.306;12.862;2023-06-22T13:35:34;32.00;99.90
12043;DHT22;6082;49.306;12.862;2023-06-22T13:38:01;32.10;99.90
12043;DHT22;6082;49.306;12.862;2023-06-22T13:40:26;32.10;99.90
12043;DHT22;6082;49.306;12.862;2023-06-22T13:42:52;32.10;99.90
12043;DHT22;6082;49.306;12.862;2023-06-22T13:45:18;32.10;99.90
12043;DHT22;6082;49.306;12.862;2023-06-22T13:47:45;32.20;99.90
12043;DHT22;6082;49.306;12.862;2023-06-22T13:50:11;32.40;99.90
12043;DHT22;6082;49.306;12.862;2023-06-22T13:52:38;32.40;99.90
12043;DHT22;6082;49.306;12.862;2023-06-22T13:55:05;32.40;99.90
12043;DHT22;6082;49.306;12.862;2023-06-22T13:57:33;32.40;99.90
12043;DHT22;6082;49.306;12.862;2023-06-22T13:59:59;32.30;99.90
12043;DHT22;6082;49.306;12.862;2023-06-22T14:02:28;32.40;99.90
12043;DHT22;6082;49.306;12.862;2023-06-22T14:04:54;32.50;99.90
12043;DHT22;6082;49.306;12.862;2023-06-22T14:07:20;32.50;99.90
12043;DHT22;6082;49.306;12.862;2023-06-22T14:09:46;32.50;99.90
12043;DHT22;6082;49.306;12.862;2023-06-22T14:12:12;32.50;99.90
12043;DHT22;6082;49.306;12.862;2023-06-22T14:14:38;32.40;99.90
12043;DHT22;6082;49.306;12.862;2023-06-22T14:17:05;32.60;99.90
12043;DHT22;6082;49.306;12.862;2023-06-22T14:19:31;32.50;99.90
12043;DHT22;6082;49.306;12.862;2023-06-22T14:21:56;32.50;99.90
12043;DHT22;6082;49.306;12.862;2023-06-22T14:24:23;32.70;99.90
12043;DHT22;6082;49.306;12.862;2023-06-22T14:26:49;32.70;99.90
12043;DHT22;6082;49.306;12.862;2023-06-22T14:29:14;32.60;99.90
12043;DHT22;6082;49.306;12.862;2023-06-22T14:31:44;32.60;99.90
12043;DHT22;6082;49.306;12.862;2023-06-22T14:34:09;32.60;99.90
12043;DHT22;6082;49.306;12.862;2023-06-22T14:36:35;32.70;99.90
12043;DHT22;6082;49.306;12.862;2023-06-22T14:39:01;32.70;99.90
12043;DHT22;6082;49.306;12.862;2023-06-22T14:41:27;32.60;99.90
12043;DHT22;6082;49.306;12.862;2023-06-22T14:43:52;32.70;99.90
12043;DHT22;6082;49.306;12.862;2023-06-22T14:46:19;32.70;99.90
12043;DHT22;6082;49.306;12.862;2023-06-22T14:48:45;32.50;99.90
12043;DHT22;6082;49.306;12.862;2023-06-22T14:51:12;32.30;99.90
12043;DHT22;6082;49.306;12.862;2023-06-22T14:53:38;32.20;99.90
12043;DHT22;6082;49.306;12.862;2023-06-22T14:56:04;32.10;99.90
12043;DHT22;6082;49.306;12.862;2023-06-22T14:58:30;32.00;99.90
12043;DHT22;6082;49.306;12.862;2023-06-22T15:01:02;32.00;99.90
12043;DHT22;6082;49.306;12.862;2023-06-22T15:03:29;31.90;99.90
12043;DHT22;6082;49.306;12.862;2023-06-22T15:05:57;32.00;99.90
12043;DHT22;6082;49.306;12.862;2023-06-22T15:08:23;32.00;99.90
12043;DHT22;6082;49.306;12.862;2023-06-22T15:10:50;32.00;99.90
12043;DHT22;6082;49.306;12.862;2023-06-22T15:13:16;32.10;99.90
12043;DHT22;6082;49.306;12.862;2023-06-22T15:15:43;32.10;99.90
12043;DHT22;6082;49.306;12.862;2023-06-22T15:18:09;32.00;99.90
12043;DHT22;6082;49.306;12.862;2023-06-22T15:20:34;32.00;99.90
12043;DHT22;6082;49.306;12.862;2023-06-22T15:23:00;32.00;99.90
12043;DHT22;6082;49.306;12.862;2023-06-22T15:25:26;32.00;99.90
12043;DHT22;6082;49.306;12.862;2023-06-22T15:27:52;32.00;99.90
12043;DHT22;6082;49.306;12.862;2023-06-22T15:30:17;32.00;99.90
12043;DHT22;6082;49.306;12.862;2023-06-22T15:32:46;32.00;99.90
12043;DHT22;6082;49.306;12.862;2023-06-22T15:35:13;32.00;99.90
12043;DHT22;6082;49.306;12.862;2023-06-22T15:37:40;32.00;99.90